Bozrah, CT (06334)

11:19 AM EDT on September 20, 2014 (GMT -0400)
Montville High School | Change Station
CLOSE
Current Station
Personal Weather Station
Location: Montville, CT
Elevation: 381 ft
Nearby Weather Stations

Elev 381 ft 41.46 °N, 72.16 °W | Updated 7 minutes ago

Clear
Clear
65.8 °F
Feels Like 65.8 °F
N
2.0
Wind Variable Wind from South
Gusts 9.0 mph

Today
High -- | Low -- °F
--% Chance of Precip.
Yesterday
High -- | Low -- °F
Precip. -- in
6:34 AM 6:49 PM
Waning Crescent, 12% visible
Pressure 30.31 in
Visibility 10.0 miles
Clouds Mostly Cloudy 2600 ft
Mostly Cloudy 3400 ft
Dew Point 56 °F
Humidity 71%
Rainfall 0.00 in
Snow Depth Not available.
UV 3 out of 12
Pollen 2.50 out of 12
Ozone Good
PM2.5 Good
Flu Activity Not available.
METAR KIJD 201452Z AUTO 19010G18KT 10SM BKN026 BKN034 18/11 A3031 RMK AO2 SLP262 T01780111 55008

More Conditions Fewer Conditions

Pressure 30.31 in
Visibility 10.0 miles
Clouds Mostly Cloudy 2600 ft
Mostly Cloudy 3400 ft
Dew Point 56 °F
Humidity 71%
Rainfall 0.00 in
Snow Depth Not available.
UV 3 out of 12
Pollen 2.50 out of 12
Ozone Good
PM2.5 Good
Flu Activity Not available.
METAR KIJD 201452Z AUTO 19010G18KT 10SM BKN026 BKN034 18/11 A3031 RMK AO2 SLP262 T01780111 55008

More Conditions Fewer Conditions

10-Day Weather Forecast

Almanac

Astronomy

Sep. 20, 2014 Rise Set
Actual Time 6:34 AM EDT 6:49 PM EDT
Civil Twilight 6:06 AM EDT 7:17 PM EDT
Nautical Twilight 5:33 AM EDT 7:49 PM EDT
Astronomical Twilight 5:00 AM EDT 8:22 PM EDT
Moon 3:08 AM EDT 4:53 PM EDT
Length of Visible Light 13h 10m
Length of Day
12h 15m
Tomorrow will be 2m 45s shorter.
Waning Crescent, 12% of the Moon is Illuminated
Today
Waning Crescent
Sep 24
New
Oct 1
First Quarter
Oct 8
Full
Oct 15
Last Quarter

Today's Extremes

State Highs State Lows

Community

WunderPhotos

Upload Photos

1,754,875 photos uploaded!

Nearby

Air Quality

  Air Quality AQ Index Pollutant
Yesterday Good
PM2.5
Yesterday Good
OZONE
Current Good
PM2.5
Current Good
OZONE
Saturday Good
OZONE
Saturday Good
PM2.5
Sunday Good
OZONE
Sunday Good
PM2.5
Monday Good
OZONE
Monday Good
PM2.5

Snow Depth

Station Depth Elevation
No new snow has been reported.

Earthquake Activity

City Distance Mag. Time & Date
No recent earthquake activity has been reported nearby.
Minimum magnitude displayed is 2.5.

Coastal Water Temperatures

Place Temperature
New London, CT 66.0 °F
Newport, RI 64.9 °F
Quonset Point, RI 66.9 °F
Conimicut Light, RI 66.9 °F
Providence, RI 64.9 °F

Nearby Weather Stations